Terminal Aerodrome Forecast
Issued by NWS

Home | Current Version | Previous Version | Text Only | Print | Product List | Glossary On
Versions: 1 2 3 4 5 6 7 8 9 10 11 12 13 14 15 16 17
000
FTUS43 KUNR 202320
TAFGCC
TAF
KGCC 202320Z 2100/2124 18015G26KT P6SM VCTS SCT100CB BKN200
      TEMPO 2101/2105 TSRA OVC100CB
     FM210500 VRB03KT P6SM BKN150
     FM210800 20008KT P6SM SCT200
     FM211000 23008KT P6SM SCT250
     FM211400 32013KT P6SM FEW250
     FM211800 35012KT P6SM SCT250=

USA.gov is the U.S. government's official web portal to all federal, state and local government web resources and services.